createdAt,value
2022-09-18T00:01:34.513Z,80.98
2022-09-18T00:04:04.814Z,80.90
2022-09-18T00:06:35.111Z,80.95
2022-09-18T00:09:05.902Z,80.82
2022-09-18T00:11:38.350Z,80.98
2022-09-18T00:14:07.222Z,80.94
2022-09-18T00:16:35.824Z,80.91
2022-09-18T00:19:04.343Z,81.06
2022-09-18T00:21:35.817Z,81.03
2022-09-18T00:24:09.561Z,80.93
2022-09-18T00:26:39.168Z,80.96
2022-09-18T00:29:07.355Z,80.91
2022-09-18T00:31:37.716Z,80.87
2022-09-18T00:34:08.733Z,81.08
2022-09-18T00:36:37.316Z,81.36
2022-09-18T00:39:05.841Z,81.46
2022-09-18T00:41:36.456Z,80.96
2022-09-18T00:44:35.695Z,81.28
2022-09-18T00:47:17.301Z,81.42
2022-09-18T00:49:49.168Z,81.34
2022-09-18T00:52:19.740Z,81.52
2022-09-18T00:54:51.983Z,81.27
2022-09-18T00:57:23.421Z,81.35
2022-09-18T00:59:54.149Z,81.15
2022-09-18T01:02:22.671Z,81.43
2022-09-18T01:04:51.350Z,81.55
2022-09-18T01:07:36.113Z,81.11
2022-09-18T01:10:14.918Z,81.79
2022-09-18T01:12:53.906Z,81.55
2022-09-18T01:15:32.011Z,81.67
2022-09-18T01:18:06.994Z,81.74
2022-09-18T01:20:52.396Z,81.44
2022-09-18T01:23:48.927Z,81.82
2022-09-18T01:26:30.499Z,81.86
2022-09-18T01:29:05.608Z,81.76
2022-09-18T01:31:39.938Z,81.97
2022-09-18T01:34:14.826Z,81.84
2022-09-18T01:36:47.214Z,81.64
2022-09-18T01:39:22.030Z,81.52
2022-09-18T01:41:52.837Z,81.87
2022-09-18T01:44:29.338Z,82.06
2022-09-18T01:46:59.791Z,82.17
2022-09-18T01:49:34.178Z,81.63
2022-09-18T01:52:06.562Z,81.86
2022-09-18T01:54:38.273Z,81.73
2022-09-18T01:57:11.963Z,81.65
2022-09-18T01:59:45.005Z,81.96
2022-09-18T02:02:20.312Z,81.92
2022-09-18T02:04:54.152Z,81.64
2022-09-18T02:07:28.298Z,81.89
2022-09-18T02:09:58.417Z,82.30
2022-09-18T02:12:33.811Z,82.52
2022-09-18T02:15:10.568Z,81.76
2022-09-18T02:17:44.289Z,81.95
2022-09-18T02:20:18.132Z,81.82
2022-09-18T02:22:47.238Z,82.26
2022-09-18T02:25:19.887Z,81.97
2022-09-18T02:27:50.410Z,82.29
2022-09-18T02:30:20.774Z,82.09
2022-09-18T02:32:48.786Z,82.10
2022-09-18T02:35:16.838Z,82.26
2022-09-18T02:37:56.481Z,82.22
2022-09-18T02:40:34.348Z,81.87
2022-09-18T02:43:18.344Z,81.80
2022-09-18T02:45:54.941Z,82.01
2022-09-18T02:48:41.908Z,81.95
2022-09-18T02:51:16.630Z,82.81
2022-09-18T02:53:51.314Z,82.57
2022-09-18T02:56:24.680Z,82.39
2022-09-18T02:58:57.033Z,82.39
2022-09-18T03:01:28.537Z,81.99
2022-09-18T03:03:56.754Z,82.08
2022-09-18T03:06:25.002Z,82.61
2022-09-18T03:08:52.953Z,82.10
2022-09-18T03:11:20.841Z,82.13
2022-09-18T03:13:48.937Z,82.64
2022-09-18T03:16:19.015Z,82.78
2022-09-18T03:18:48.728Z,82.67
2022-09-18T03:21:16.699Z,82.22
2022-09-18T03:23:45.699Z,82.99
2022-09-18T03:26:14.185Z,82.63
2022-09-18T03:28:59.048Z,82.81
2022-09-18T03:31:27.250Z,82.46
2022-09-18T03:33:56.842Z,83.11
2022-09-18T03:36:24.733Z,82.74
2022-09-18T03:38:53.089Z,82.88
2022-09-18T03:41:22.592Z,82.75
2022-09-18T03:43:51.115Z,82.36
2022-09-18T03:46:23.503Z,82.27
2022-09-18T03:48:52.323Z,82.41
2022-09-18T03:51:21.819Z,82.93
2022-09-18T03:53:51.364Z,83.13
2022-09-18T03:56:19.415Z,83.09
2022-09-18T03:58:47.413Z,83.20
2022-09-18T04:01:15.423Z,82.95
2022-09-18T04:03:43.338Z,83.41
2022-09-18T04:06:11.374Z,82.76
2022-09-18T04:08:41.062Z,82.81
2022-09-18T04:11:08.995Z,82.87
2022-09-18T04:13:36.798Z,83.02
2022-09-18T04:16:12.251Z,83.38
2022-09-18T04:18:40.942Z,83.02
2022-09-18T04:21:20.042Z,83.15
2022-09-18T04:23:54.611Z,82.88
2022-09-18T04:26:23.098Z,83.46
2022-09-18T04:28:51.072Z,83.22
2022-09-18T04:31:19.159Z,83.09
2022-09-18T04:33:47.183Z,83.18
2022-09-18T04:36:15.306Z,83.14
2022-09-18T04:38:43.219Z,83.23
2022-09-18T04:41:12.882Z,83.44
2022-09-18T04:43:40.841Z,83.43
2022-09-18T04:46:09.672Z,83.32
2022-09-18T04:48:37.740Z,83.40
2022-09-18T04:51:05.705Z,83.06
2022-09-18T04:53:35.446Z,83.44
2022-09-18T04:56:03.670Z,83.63
2022-09-18T04:58:33.014Z,83.90
2022-09-18T05:01:01.273Z,83.70
2022-09-18T05:03:29.871Z,83.72
2022-09-18T05:05:57.892Z,83.63
2022-09-18T05:08:25.869Z,83.43
2022-09-18T05:10:54.403Z,83.62
2022-09-18T05:13:22.375Z,83.89
2022-09-18T05:15:56.297Z,83.49
2022-09-18T05:18:24.911Z,83.63
2022-09-18T05:20:53.330Z,83.54
2022-09-18T05:23:21.722Z,83.60
2022-09-18T05:25:49.622Z,83.57
2022-09-18T05:28:19.287Z,83.39
2022-09-18T05:30:47.232Z,83.46
2022-09-18T05:33:16.662Z,84.11
2022-09-18T05:35:44.510Z,84.15
2022-09-18T05:38:13.866Z,83.93
2022-09-18T05:40:42.000Z,83.78
2022-09-18T05:43:10.112Z,84.06
2022-09-18T05:45:47.369Z,84.01
2022-09-18T05:48:16.653Z,84.18
2022-09-18T05:50:44.892Z,84.17
2022-09-18T05:53:14.183Z,84.27
2022-09-18T05:55:44.806Z,84.33
2022-09-18T05:58:14.641Z,84.43
2022-09-18T06:00:44.711Z,84.54
2022-09-18T06:03:14.111Z,84.21
2022-09-18T06:05:44.530Z,84.34
2022-09-18T06:08:13.689Z,84.03
2022-09-18T06:10:42.258Z,84.45
2022-09-18T06:13:13.792Z,84.30
2022-09-18T06:15:45.057Z,84.29
2022-09-18T06:18:14.610Z,84.35
2022-09-18T06:20:45.030Z,84.43
2022-09-18T06:23:13.264Z,84.79
2022-09-18T06:25:50.397Z,84.25
2022-09-18T06:28:19.108Z,84.24
2022-09-18T06:30:48.766Z,84.47
2022-09-18T06:33:18.441Z,85.01
2022-09-18T06:35:49.276Z,84.68
2022-09-18T06:38:17.690Z,84.54
2022-09-18T06:40:53.058Z,84.25
2022-09-18T06:43:21.705Z,84.37
2022-09-18T06:45:53.598Z,84.34
2022-09-18T06:48:21.932Z,84.17
2022-09-18T06:50:55.860Z,84.35
2022-09-18T06:53:24.223Z,84.53
2022-09-18T06:55:52.280Z,84.73
2022-09-18T06:58:21.145Z,85.08
2022-09-18T07:00:49.325Z,84.90
2022-09-18T07:03:17.263Z,84.70
2022-09-18T07:05:48.518Z,84.55
2022-09-18T07:08:17.771Z,85.05
2022-09-18T07:10:45.677Z,84.76
2022-09-18T07:13:13.874Z,84.87
2022-09-18T07:15:41.888Z,84.83
2022-09-18T07:18:09.977Z,84.94
2022-09-18T07:20:38.304Z,84.92
2022-09-18T07:23:06.232Z,84.95
2022-09-18T07:25:36.048Z,85.14
2022-09-18T07:28:10.175Z,85.11
2022-09-18T07:30:39.171Z,84.87
2022-09-18T07:33:08.946Z,84.97
2022-09-18T07:35:37.611Z,84.77
2022-09-18T07:38:09.729Z,85.12
2022-09-18T07:40:40.522Z,84.79
2022-09-18T07:43:10.116Z,84.90
2022-09-18T07:45:44.267Z,84.75
2022-09-18T07:48:12.493Z,84.75
2022-09-18T07:50:40.854Z,85.07
2022-09-18T07:53:09.106Z,85.09
2022-09-18T07:55:38.415Z,85.01
2022-09-18T07:58:10.208Z,84.86
2022-09-18T08:00:40.649Z,85.14
2022-09-18T08:03:13.779Z,84.83
2022-09-18T08:05:42.939Z,84.75
2022-09-18T08:08:14.144Z,84.60
2022-09-18T08:10:45.615Z,84.90
2022-09-18T08:13:15.003Z,84.84
2022-09-18T08:15:46.005Z,85.05
2022-09-18T08:18:13.901Z,84.66
2022-09-18T08:20:43.612Z,84.93
2022-09-18T08:23:12.640Z,85.01
2022-09-18T08:25:41.959Z,84.68
2022-09-18T08:28:11.285Z,84.73
2022-09-18T08:30:42.132Z,84.68
2022-09-18T08:33:11.967Z,84.76
2022-09-18T08:35:42.081Z,84.57
2022-09-18T08:38:12.070Z,84.79
2022-09-18T08:41:00.987Z,84.75
2022-09-18T08:43:45.715Z,84.52
2022-09-18T08:46:18.510Z,84.83
2022-09-18T08:48:56.635Z,84.75
2022-09-18T08:51:32.227Z,84.60
2022-09-18T08:54:18.118Z,84.31
2022-09-18T08:56:47.384Z,84.75
2022-09-18T08:59:22.774Z,84.69
2022-09-18T09:02:01.579Z,84.57
2022-09-18T09:04:30.049Z,84.33
2022-09-18T09:07:10.836Z,84.45
2022-09-18T09:09:53.334Z,84.57
2022-09-18T09:12:31.581Z,84.48
2022-09-18T09:15:35.369Z,84.26
2022-09-18T09:18:18.035Z,84.49
2022-09-18T09:20:53.496Z,84.30
2022-09-18T09:23:38.273Z,84.29
2022-09-18T09:26:09.198Z,84.11
2022-09-18T09:28:46.310Z,84.04
2022-09-18T09:31:19.090Z,83.99
2022-09-18T09:33:58.438Z,84.08
2022-09-18T09:36:29.726Z,84.00
2022-09-18T09:39:05.300Z,84.04
2022-09-18T09:41:40.555Z,83.80
2022-09-18T09:44:31.343Z,83.76
2022-09-18T09:47:12.037Z,83.64
2022-09-18T09:49:56.512Z,83.63
2022-09-18T09:52:27.516Z,83.46
2022-09-18T09:54:58.186Z,83.45
2022-09-18T09:57:31.132Z,83.27
2022-09-18T10:00:10.566Z,83.36
2022-09-18T10:02:56.345Z,83.25
2022-09-18T10:05:32.292Z,83.31
2022-09-18T10:08:24.149Z,83.14
2022-09-18T10:10:58.887Z,83.00
2022-09-18T10:13:32.114Z,82.83
2022-09-18T10:16:13.687Z,82.84
2022-09-18T10:18:47.667Z,82.77
2022-09-18T10:21:18.423Z,82.54
2022-09-18T10:23:53.658Z,82.65
2022-09-18T10:26:28.036Z,82.33
2022-09-18T10:28:57.219Z,82.46
2022-09-18T10:31:45.241Z,82.25
2022-09-18T10:34:32.915Z,82.36
2022-09-18T10:37:01.849Z,82.03
2022-09-18T10:39:32.090Z,81.85
2022-09-18T10:42:01.748Z,81.71
2022-09-18T10:44:32.222Z,81.76
2022-09-18T10:47:06.574Z,81.46
2022-09-18T10:49:41.262Z,81.48
2022-09-18T10:52:40.377Z,81.21
2022-09-18T10:55:16.318Z,81.22
2022-09-18T10:57:46.661Z,80.94
2022-09-18T11:00:39.963Z,80.83
2022-09-18T11:03:30.509Z,80.49
2022-09-18T11:06:03.491Z,80.81
2022-09-18T11:08:35.345Z,80.50
2022-09-18T11:11:07.008Z,80.32
2022-09-18T11:13:42.246Z,80.33
2022-09-18T11:16:10.391Z,80.31
2022-09-18T11:18:39.086Z,80.25
2022-09-18T11:21:09.122Z,80.10
2022-09-18T11:23:38.331Z,79.78
2022-09-18T11:26:20.777Z,79.67
2022-09-18T11:29:00.948Z,79.53
2022-09-18T11:31:40.339Z,79.46
2022-09-18T11:34:22.403Z,79.18
2022-09-18T11:36:54.629Z,79.29
2022-09-18T11:39:27.790Z,79.23
2022-09-18T11:41:56.794Z,78.99
2022-09-18T11:44:28.586Z,79.00
2022-09-18T11:47:23.995Z,78.64
2022-09-18T11:49:56.559Z,78.55
2022-09-18T11:52:30.984Z,78.57
2022-09-18T11:55:03.508Z,78.53
2022-09-18T11:57:37.230Z,78.36
2022-09-18T12:00:08.884Z,78.22
2022-09-18T12:02:45.104Z,78.19
2022-09-18T12:05:21.735Z,77.95
2022-09-18T12:07:58.792Z,77.73
2022-09-18T12:10:36.816Z,77.77
2022-09-18T12:13:25.674Z,77.69
2022-09-18T12:15:59.022Z,77.61
2022-09-18T12:18:32.331Z,77.48
2022-09-18T12:21:09.912Z,77.33
2022-09-18T12:23:39.568Z,77.27
2022-09-18T12:26:15.365Z,77.10
2022-09-18T12:29:00.798Z,77.06
2022-09-18T12:31:39.352Z,77.04
2022-09-18T12:34:21.700Z,76.90
2022-09-18T12:37:08.777Z,76.74
2022-09-18T12:39:55.978Z,76.60
2022-09-18T12:42:38.377Z,76.50
2022-09-18T12:45:36.074Z,76.36
2022-09-18T12:48:27.738Z,76.16
2022-09-18T12:51:11.645Z,76.07
2022-09-18T12:53:51.157Z,76.07
2022-09-18T12:56:39.049Z,75.98
2022-09-18T12:59:32.359Z,75.84
2022-09-18T13:02:13.391Z,75.69
2022-09-18T13:04:47.911Z,75.68
2022-09-18T13:07:22.629Z,75.41
2022-09-18T13:09:56.661Z,75.12
2022-09-18T13:12:36.589Z,75.32
2022-09-18T13:15:12.038Z,75.34
2022-09-18T13:17:46.163Z,75.08
2022-09-18T13:20:19.237Z,74.91
2022-09-18T13:22:53.280Z,74.99
2022-09-18T13:25:28.489Z,74.99
2022-09-18T13:28:33.471Z,74.83
2022-09-18T13:31:39.658Z,74.71
2022-09-18T13:34:18.801Z,74.65
2022-09-18T13:36:48.171Z,74.35
2022-09-18T13:39:20.552Z,74.30
2022-09-18T13:41:51.613Z,74.54
2022-09-18T13:44:24.821Z,73.70
2022-09-18T13:46:55.249Z,74.26
2022-09-18T13:49:29.923Z,74.13
2022-09-18T13:52:18.295Z,74.13
2022-09-18T13:55:01.697Z,73.90
2022-09-18T13:57:33.575Z,73.85
2022-09-18T14:00:12.158Z,73.69
2022-09-18T14:02:43.203Z,73.86
2022-09-18T14:05:31.004Z,73.66
2022-09-18T14:11:17.249Z,73.68
2022-09-18T14:13:51.746Z,73.54
2022-09-18T14:16:43.836Z,73.47
2022-09-18T14:19:33.144Z,73.61
2022-09-18T14:22:02.544Z,73.35
2022-09-18T14:24:56.165Z,73.37
2022-09-18T14:27:43.651Z,73.37
2022-09-18T14:30:20.975Z,73.10
2022-09-18T14:33:03.857Z,73.32
2022-09-18T14:35:38.045Z,73.27
2022-09-18T14:38:17.850Z,73.37
2022-09-18T14:40:53.353Z,73.32
2022-09-18T14:43:24.185Z,73.38
2022-09-18T14:45:52.722Z,73.31
2022-09-18T14:48:27.765Z,73.16
2022-09-18T14:51:18.448Z,72.93
2022-09-18T14:53:51.440Z,72.94
2022-09-18T14:56:24.851Z,72.76
2022-09-18T14:58:53.967Z,72.73
2022-09-18T15:01:29.952Z,72.41
2022-09-18T15:04:21.634Z,72.40
2022-09-18T15:06:55.914Z,72.25
2022-09-18T15:09:29.617Z,72.08
2022-09-18T15:12:02.640Z,72.15
2022-09-18T15:14:39.888Z,71.84
2022-09-18T15:17:18.744Z,71.66
2022-09-18T15:19:58.802Z,71.93
2022-09-18T15:22:28.256Z,71.52
2022-09-18T15:25:02.213Z,71.63
2022-09-18T15:27:33.948Z,71.40
2022-09-18T15:30:05.613Z,71.29
2022-09-18T15:32:39.179Z,71.37
2022-09-18T15:35:18.080Z,71.17
2022-09-18T15:37:54.089Z,71.15
2022-09-18T15:40:27.801Z,71.25
2022-09-18T15:43:04.261Z,71.18
2022-09-18T15:45:33.974Z,70.87
2022-09-18T15:48:23.986Z,70.79
2022-09-18T15:51:09.461Z,71.00
2022-09-18T15:53:38.595Z,71.06
2022-09-18T15:56:11.291Z,70.82
2022-09-18T15:58:45.685Z,70.61
2022-09-18T16:01:23.097Z,70.63
2022-09-18T16:04:05.580Z,70.51
2022-09-18T16:06:43.587Z,70.79
2022-09-18T16:09:30.631Z,70.60
2022-09-18T16:12:01.530Z,70.39
2022-09-18T16:14:44.760Z,70.52
2022-09-18T16:17:36.891Z,70.34
2022-09-18T16:20:30.999Z,70.52
2022-09-18T16:23:28.850Z,70.51
2022-09-18T16:26:07.294Z,70.20
2022-09-18T16:28:38.020Z,70.27
2022-09-18T16:31:06.349Z,70.57
2022-09-18T16:33:35.585Z,70.19
2022-09-18T16:36:07.835Z,70.46
2022-09-18T16:38:37.859Z,70.18
2022-09-18T16:41:06.108Z,70.37
2022-09-18T16:43:33.988Z,70.26
2022-09-18T16:46:02.707Z,70.24
2022-09-18T16:48:31.275Z,70.19
2022-09-18T16:50:59.357Z,69.91
2022-09-18T16:53:27.441Z,70.21
2022-09-18T16:55:58.698Z,70.17
2022-09-18T16:58:29.141Z,70.00
2022-09-18T17:00:58.203Z,70.29
2022-09-18T17:03:27.574Z,70.06
2022-09-18T17:05:55.775Z,70.21
2022-09-18T17:08:24.212Z,70.24
2022-09-18T17:10:52.269Z,69.94
2022-09-18T17:13:30.804Z,70.05
2022-09-18T17:16:01.774Z,70.01
2022-09-18T17:18:39.921Z,70.22
2022-09-18T17:21:13.074Z,70.18
2022-09-18T17:23:41.420Z,70.10
2022-09-18T17:26:14.257Z,69.84
2022-09-18T17:28:44.968Z,69.96
2022-09-18T17:31:17.689Z,70.28
2022-09-18T17:33:47.210Z,70.26
2022-09-18T17:36:17.142Z,69.81
2022-09-18T17:38:45.892Z,70.26
2022-09-18T17:41:16.767Z,69.91
2022-09-18T17:43:51.044Z,70.16
2022-09-18T17:46:19.488Z,70.29
2022-09-18T17:48:47.475Z,70.24
2022-09-18T17:51:18.322Z,69.83
2022-09-18T17:53:48.083Z,69.94
2022-09-18T17:56:18.182Z,70.20
2022-09-18T17:58:48.610Z,69.91
2022-09-18T18:01:18.985Z,70.08
2022-09-18T18:03:48.525Z,70.03
2022-09-18T18:06:21.524Z,70.55
2022-09-18T18:08:50.103Z,70.12
2022-09-18T18:11:22.246Z,70.31
2022-09-18T18:13:52.530Z,70.18
2022-09-18T18:16:23.305Z,70.36
2022-09-18T18:18:52.697Z,70.13
2022-09-18T18:21:21.075Z,70.43
2022-09-18T18:23:49.435Z,70.18
2022-09-18T18:26:18.585Z,70.37
2022-09-18T18:28:46.544Z,70.31
2022-09-18T18:31:17.840Z,70.59
2022-09-18T18:33:46.982Z,70.58
2022-09-18T18:36:17.428Z,70.50
2022-09-18T18:38:48.093Z,70.44
2022-09-18T18:41:17.525Z,70.38
2022-09-18T18:43:45.956Z,70.90
2022-09-18T18:46:15.637Z,70.59
2022-09-18T18:48:45.972Z,70.86
2022-09-18T18:51:17.854Z,70.69
2022-09-18T18:53:46.149Z,70.76
2022-09-18T18:56:15.646Z,70.67
2022-09-18T18:58:44.137Z,70.71
2022-09-18T19:01:14.736Z,70.69
2022-09-18T19:03:51.679Z,70.82
2022-09-18T19:06:20.575Z,70.68
2022-09-18T19:08:48.745Z,71.08
2022-09-18T19:11:18.874Z,71.13
2022-09-18T19:13:51.117Z,71.08
2022-09-18T19:16:20.932Z,71.00
2022-09-18T19:18:55.330Z,71.25
2022-09-18T19:21:26.840Z,71.00
2022-09-18T19:24:02.885Z,70.84
2022-09-18T19:26:31.796Z,71.50
2022-09-18T19:29:02.334Z,71.52
2022-09-18T19:31:31.145Z,71.21
2022-09-18T19:34:00.739Z,71.22
2022-09-18T19:36:30.559Z,71.46
2022-09-18T19:39:00.151Z,71.15
2022-09-18T19:41:39.134Z,71.36
2022-09-18T19:44:11.226Z,71.69
2022-09-18T19:46:40.074Z,71.40
2022-09-18T19:49:16.911Z,71.79
2022-09-18T19:51:45.165Z,71.30
2022-09-18T19:54:15.866Z,71.57
2022-09-18T19:56:47.966Z,72.16
2022-09-18T19:59:16.582Z,72.08
2022-09-18T20:01:44.893Z,71.94
2022-09-18T20:04:16.978Z,72.05
2022-09-18T20:06:44.863Z,72.02
2022-09-18T20:09:12.700Z,72.04
2022-09-18T20:11:41.175Z,72.15
2022-09-18T20:14:09.663Z,72.12
2022-09-18T20:16:40.378Z,71.93
2022-09-18T20:19:08.393Z,72.25
2022-09-18T20:21:37.697Z,72.23
2022-09-18T20:24:05.960Z,72.26
2022-09-18T20:26:36.890Z,72.16
2022-09-18T20:29:05.003Z,72.66
2022-09-18T20:31:33.054Z,72.42
2022-09-18T20:34:04.767Z,72.57
2022-09-18T20:36:33.615Z,72.38
2022-09-18T20:39:03.695Z,72.33
2022-09-18T20:41:32.242Z,72.68
2022-09-18T20:44:05.273Z,72.48
2022-09-18T20:46:37.132Z,72.63
2022-09-18T20:49:09.061Z,73.11
2022-09-18T20:51:37.123Z,72.72
2022-09-18T20:54:10.940Z,72.85
2022-09-18T20:56:42.158Z,73.01
2022-09-18T20:59:11.438Z,72.85
2022-09-18T21:01:42.194Z,73.31
2022-09-18T21:04:17.067Z,72.77
2022-09-18T21:06:46.834Z,73.27
2022-09-18T21:09:16.530Z,73.27
2022-09-18T21:11:45.952Z,73.48
2022-09-18T21:14:16.129Z,72.86
2022-09-18T21:16:45.037Z,73.43
2022-09-18T21:19:13.981Z,73.09
2022-09-18T21:21:42.419Z,73.29
2022-09-18T21:24:10.714Z,73.71
2022-09-18T21:26:41.873Z,73.67
2022-09-18T21:29:13.822Z,73.87
2022-09-18T21:31:43.320Z,73.72
2022-09-18T21:34:13.289Z,73.77
2022-09-18T21:36:43.602Z,73.81
2022-09-18T21:39:12.956Z,73.66
2022-09-18T21:41:46.603Z,73.57
2022-09-18T21:44:16.429Z,73.63
2022-09-18T21:46:45.929Z,73.54
2022-09-18T21:49:16.484Z,73.84
2022-09-18T21:51:44.852Z,74.01
2022-09-18T21:54:15.707Z,74.00
2022-09-18T21:56:49.583Z,74.45
2022-09-18T21:59:17.552Z,74.49
2022-09-18T22:01:46.837Z,74.33
2022-09-18T22:04:15.066Z,74.59
2022-09-18T22:06:45.313Z,74.06
2022-09-18T22:09:16.355Z,74.59
2022-09-18T22:11:46.707Z,73.86
2022-09-18T22:14:16.842Z,74.51
2022-09-18T22:16:47.196Z,73.93
2022-09-18T22:19:16.566Z,74.84
2022-09-18T22:21:46.531Z,74.73
2022-09-18T22:24:19.011Z,74.53
2022-09-18T22:26:51.313Z,74.71
2022-09-18T22:29:34.939Z,74.13
2022-09-18T22:32:27.487Z,74.87
2022-09-18T22:34:56.130Z,74.74
2022-09-18T22:37:24.951Z,74.39
2022-09-18T22:39:52.976Z,74.92
2022-09-18T22:42:22.888Z,75.00
2022-09-18T22:44:50.806Z,74.74
2022-09-18T22:47:18.768Z,74.81
2022-09-18T22:49:46.681Z,75.13
2022-09-18T22:52:14.670Z,74.99
2022-09-18T22:54:42.778Z,75.22
2022-09-18T22:57:10.670Z,75.24
2022-09-18T22:59:39.998Z,75.17
2022-09-18T23:02:08.175Z,75.48
2022-09-18T23:04:36.885Z,75.33
2022-09-18T23:07:05.265Z,75.15
2022-09-18T23:09:36.426Z,75.50
2022-09-18T23:12:04.602Z,75.59
2022-09-18T23:14:32.577Z,75.83
2022-09-18T23:17:03.101Z,75.65
2022-09-18T23:19:33.351Z,76.14
2022-09-18T23:22:02.087Z,75.75
2022-09-18T23:24:32.146Z,76.04
2022-09-18T23:27:00.354Z,75.44
2022-09-18T23:29:31.785Z,75.45
2022-09-18T23:32:01.301Z,75.97
2022-09-18T23:34:33.684Z,76.08
2022-09-18T23:37:02.547Z,76.04
2022-09-18T23:39:32.443Z,75.60
2022-09-18T23:42:02.665Z,75.83
2022-09-18T23:44:31.876Z,75.89
2022-09-18T23:47:03.192Z,75.47
2022-09-18T23:49:31.905Z,76.42
2022-09-18T23:52:00.878Z,76.50
2022-09-18T23:54:30.823Z,76.64
2022-09-18T23:56:59.217Z,76.29
2022-09-18T23:59:27.775Z,76.14
